Time;durP1;ratioP1;P1;durP2;ratioP2;P2;SDS_P1;SDS_P2;PMS_P1;PMS_P2;Temp;Humidity;BMP_temperature;BMP_pressure;BME280_temperature;BME280_humidity;BME280_pressure;Samples;Min_cycle;Max_cycle;Signal;HPM_P1;HPM_P2
2023/09/15 00:00:33;;;;;;;7.93;4.55;;;23.80;96.70;;;;;;5108346;28;20097;-71
2023/09/15 00:03:00;;;;;;;7.78;4.50;;;23.80;96.70;;;;;;5108510;28;20139;-72
2023/09/15 00:05:33;;;;;;;7.55;4.95;;;23.90;96.70;;;;;;5090806;28;20067;-71
2023/09/15 00:08:04;;;;;;;5.68;4.00;;;23.80;96.70;;;;;;5090336;28;20052;-71
2023/09/15 00:10:34;;;;;;;7.25;3.90;;;23.80;96.70;;;;;;5090352;28;20524;-71
2023/09/15 00:13:03;;;;;;;5.97;4.53;;;23.70;96.70;;;;;;5139600;27;20144;-72
2023/09/15 00:15:32;;;;;;;5.18;4.65;;;23.50;96.70;;;;;;5108365;28;20097;-71
2023/09/15 00:18:00;;;;;;;5.18;4.15;;;23.40;96.70;;;;;;5107629;28;20042;-71
2023/09/15 00:20:30;;;;;;;7.22;4.70;;;23.40;96.70;;;;;;5073244;28;20097;-72
2023/09/15 00:22:58;;;;;;;5.22;3.92;;;23.50;96.70;;;;;;5108230;28;20096;-71
2023/09/15 00:25:28;;;;;;;5.43;4.47;;;23.60;96.70;;;;;;5107887;28;20067;-71
2023/09/15 00:27:58;;;;;;;4.43;4.03;;;23.70;96.70;;;;;;5108042;28;20047;-71
2023/09/15 00:30:27;;;;;;;6.95;4.57;;;23.60;96.70;;;;;;5089877;28;20047;-71
2023/09/15 00:32:56;;;;;;;5.38;4.25;;;23.50;96.70;;;;;;5090061;28;20047;-71
2023/09/15 00:35:28;;;;;;;8.60;4.03;;;23.50;96.70;;;;;;5072913;28;20048;-71
2023/09/15 00:37:57;;;;;;;5.55;4.38;;;23.50;96.70;;;;;;5088632;28;20076;-71
2023/09/15 00:40:27;;;;;;;4.72;4.07;;;23.50;96.70;;;;;;5071351;28;20146;-71
2023/09/15 00:42:56;;;;;;;5.25;4.68;;;23.50;96.70;;;;;;5071582;28;20394;-71
2023/09/15 00:45:25;;;;;;;8.68;4.75;;;23.40;96.70;;;;;;5088459;28;20508;-71
2023/09/15 00:47:58;;;;;;;9.02;4.95;;;23.40;96.70;;;;;;5101451;28;20810;-71
2023/09/15 00:50:28;;;;;;;6.63;4.75;;;23.50;96.70;;;;;;5071361;28;20207;-71
2023/09/15 00:53:01;;;;;;;4.93;4.40;;;23.50;96.70;;;;;;5071746;28;20066;-70
2023/09/15 00:55:30;;;;;;;6.00;4.60;;;23.50;96.70;;;;;;5107813;28;20044;-71
2023/09/15 00:57:59;;;;;;;6.30;4.97;;;23.40;96.70;;;;;;5088618;28;20485;-71
2023/09/15 01:00:27;;;;;;;6.85;5.20;;;23.40;96.70;;;;;;5089541;28;20576;-71
2023/09/15 01:02:56;;;;;;;6.95;5.03;;;23.40;96.70;;;;;;5087744;28;20040;-70
2023/09/15 01:05:24;;;;;;;5.50;4.60;;;23.40;96.70;;;;;;5106402;28;20050;-71
2023/09/15 01:07:53;;;;;;;5.55;4.63;;;23.30;96.70;;;;;;5106268;28;20054;-71
2023/09/15 01:10:24;;;;;;;4.80;4.03;;;23.40;96.70;;;;;;5106218;28;20039;-71
2023/09/15 01:12:53;;;;;;;6.40;4.72;;;23.30;96.70;;;;;;5088341;28;20040;-71
2023/09/15 01:15:26;;;;;;;7.15;4.32;;;23.30;96.70;;;;;;5071092;28;20050;-71
2023/09/15 01:18:00;;;;;;;6.95;4.72;;;23.30;96.70;;;;;;5087701;28;20055;-71
2023/09/15 01:20:49;;;;;;;5.45;4.25;;;23.30;96.70;;;;;;5087974;28;20111;-71
2023/09/15 01:23:53;;;;;;;5.93;4.60;;;23.30;96.70;;;;;;5087746;28;20043;-71
2023/09/15 01:26:44;;;;;;;7.25;4.40;;;23.30;96.70;;;;;;5087863;28;20047;-71
2023/09/15 01:29:40;;;;;;;5.45;4.50;;;23.20;96.70;;;;;;5087804;28;20052;-71
2023/09/15 01:32:10;;;;;;;7.07;5.15;;;23.20;96.70;;;;;;5105725;28;20031;-72
2023/09/15 01:34:45;;;;;;;8.88;5.13;;;23.00;96.70;;;;;;5071821;28;20611;-72
2023/09/15 01:37:13;;;;;;;6.13;4.53;;;22.80;96.70;;;;;;5012442;28;2109633;-71
2023/09/15 01:39:42;;;;;;;8.90;5.13;;;22.80;96.70;;;;;;5102515;28;20038;-71
2023/09/15 01:42:11;;;;;;;6.20;4.75;;;23.00;96.70;;;;;;5071894;28;20048;-72
2023/09/15 01:44:41;;;;;;;6.03;4.93;;;23.00;96.70;;;;;;5102468;28;20050;-72
2023/09/15 01:47:10;;;;;;;7.88;4.45;;;23.10;96.70;;;;;;5088103;28;20082;-71
2023/09/15 01:49:39;;;;;;;5.57;4.07;;;23.20;96.70;;;;;;5106848;28;20374;-71
2023/09/15 01:52:08;;;;;;;7.40;5.43;;;23.20;96.70;;;;;;5071638;28;20051;-71
2023/09/15 01:54:36;;;;;;;6.75;4.63;;;23.30;96.70;;;;;;5087177;28;20184;-72
2023/09/15 01:57:05;;;;;;;6.90;4.63;;;23.30;96.70;;;;;;5088481;28;20048;-72
2023/09/15 01:59:34;;;;;;;5.70;4.90;;;23.20;96.70;;;;;;5088250;28;20040;-72
2023/09/15 02:02:04;;;;;;;6.03;5.10;;;23.20;96.70;;;;;;5088103;28;20058;-71
2023/09/15 02:04:33;;;;;;;6.78;5.18;;;23.20;96.70;;;;;;5088123;28;20047;-71
2023/09/15 02:07:01;;;;;;;5.85;5.20;;;23.20;96.70;;;;;;5071346;28;20052;-72
2023/09/15 02:09:29;;;;;;;5.80;5.22;;;23.30;96.70;;;;;;5071374;28;20060;-71
2023/09/15 02:11:58;;;;;;;6.38;5.15;;;23.30;96.70;;;;;;5100764;28;20131;-72
2023/09/15 02:14:26;;;;;;;7.18;5.32;;;23.30;96.70;;;;;;5087307;28;20887;-72
2023/09/15 02:16:55;;;;;;;5.28;4.63;;;23.30;96.70;;;;;;5071316;28;20501;-71
2023/09/15 02:19:26;;;;;;;6.78;5.40;;;23.40;96.70;;;;;;5087569;28;20066;-71
2023/09/15 02:21:54;;;;;;;8.10;5.30;;;23.40;96.70;;;;;;5087994;28;20449;-71
2023/09/15 02:24:24;;;;;;;5.95;4.32;;;23.10;96.70;;;;;;5105234;28;20048;-72
2023/09/15 02:26:52;;;;;;;5.13;4.63;;;23.10;96.70;;;;;;5087505;28;20142;-71
2023/09/15 02:29:20;;;;;;;5.57;4.10;;;23.10;96.70;;;;;;5087675;28;20083;-73
2023/09/15 02:31:51;;;;;;;6.45;4.00;;;23.10;96.70;;;;;;5067892;28;20048;-72
2023/09/15 02:34:19;;;;;;;6.65;4.85;;;23.10;96.70;;;;;;5102107;28;20070;-71
2023/09/15 02:36:48;;;;;;;7.75;4.82;;;23.10;96.70;;;;;;5105228;28;20124;-72
2023/09/15 02:39:17;;;;;;;5.88;4.45;;;23.00;96.70;;;;;;5095828;28;20047;-71
2023/09/15 02:41:45;;;;;;;8.30;4.45;;;23.10;96.70;;;;;;5105914;28;20324;-71
2023/09/15 02:44:13;;;;;;;5.57;4.85;;;23.10;96.70;;;;;;5106157;28;20059;-71
2023/09/15 02:46:42;;;;;;;5.88;4.85;;;23.00;96.70;;;;;;5070559;28;20605;-71
2023/09/15 02:49:11;;;;;;;9.25;4.57;;;23.00;96.70;;;;;;5070879;28;20044;-72
2023/09/15 02:51:40;;;;;;;6.60;4.70;;;23.00;96.70;;;;;;5070658;28;20061;-72
2023/09/15 02:54:10;;;;;;;5.93;4.50;;;23.00;96.70;;;;;;5070546;28;20074;-71
2023/09/15 02:56:38;;;;;;;5.03;4.20;;;23.10;96.70;;;;;;5086913;28;20050;-71
2023/09/15 02:59:07;;;;;;;5.75;4.22;;;23.10;96.70;;;;;;5104831;28;20039;-72
2023/09/15 03:01:36;;;;;;;6.05;4.25;;;23.10;96.70;;;;;;5083877;28;20052;-71
2023/09/15 03:04:05;;;;;;;6.45;4.72;;;23.20;96.70;;;;;;5070861;28;20047;-72
2023/09/15 03:06:34;;;;;;;6.95;4.63;;;23.20;96.70;;;;;;5085956;28;20048;-72
2023/09/15 03:09:03;;;;;;;5.50;4.38;;;23.20;96.70;;;;;;5105221;28;20058;-72
2023/09/15 03:11:33;;;;;;;6.03;4.28;;;23.20;96.70;;;;;;5105281;28;20599;-72
2023/09/15 03:14:05;;;;;;;6.07;4.55;;;23.30;96.70;;;;;;5086777;28;20071;-72
2023/09/15 03:16:33;;;;;;;5.20;4.68;;;23.20;96.70;;;;;;5070237;28;20048;-71
2023/09/15 03:19:03;;;;;;;5.50;4.72;;;23.10;96.70;;;;;;5094441;28;20044;-71
2023/09/15 03:21:33;;;;;;;6.50;5.03;;;23.00;96.70;;;;;;5086774;28;20044;-71
2023/09/15 03:24:03;;;;;;;7.03;4.88;;;23.00;96.70;;;;;;5086826;28;20051;-72
2023/09/15 03:26:33;;;;;;;5.97;4.30;;;22.90;96.70;;;;;;5086659;28;20040;-71
2023/09/15 03:29:01;;;;;;;5.72;4.70;;;22.90;96.70;;;;;;5086577;28;20440;-71
2023/09/15 03:31:29;;;;;;;5.28;4.45;;;22.90;96.70;;;;;;5082877;28;20038;-71
2023/09/15 03:33:58;;;;;;;6.13;5.00;;;22.90;96.70;;;;;;5086305;28;20052;-72
2023/09/15 03:36:28;;;;;;;7.35;4.60;;;22.90;96.70;;;;;;5070016;28;20051;-72
2023/09/15 03:38:56;;;;;;;9.43;4.75;;;23.00;96.70;;;;;;5105319;28;20039;-71
2023/09/15 03:41:27;;;;;;;5.38;4.88;;;23.00;96.70;;;;;;5086869;28;20044;-71
2023/09/15 03:43:59;;;;;;;5.80;4.40;;;22.90;96.70;;;;;;5078202;28;20052;-71
2023/09/15 03:46:27;;;;;;;6.00;4.47;;;22.90;96.70;;;;;;5095571;28;20421;-72
2023/09/15 03:48:55;;;;;;;6.38;5.22;;;22.90;96.70;;;;;;5074180;28;20047;-72
2023/09/15 03:51:25;;;;;;;8.38;4.75;;;22.90;96.70;;;;;;5098680;28;20517;-71
2023/09/15 03:53:53;;;;;;;8.32;4.68;;;22.90;96.70;;;;;;5104690;28;20078;-72
2023/09/15 03:56:23;;;;;;;5.32;4.65;;;22.90;96.70;;;;;;5104381;28;20504;-71
2023/09/15 03:58:52;;;;;;;5.85;5.05;;;22.80;96.70;;;;;;5094894;28;20040;-72
2023/09/15 04:01:23;;;;;;;5.82;4.93;;;22.80;96.70;;;;;;5091289;28;20138;-71
2023/09/15 04:03:52;;;;;;;8.20;5.10;;;22.80;96.70;;;;;;5085843;28;20050;-72
2023/09/15 04:06:20;;;;;;;5.38;4.50;;;22.80;96.70;;;;;;5086604;28;20043;-71
2023/09/15 04:08:48;;;;;;;6.55;4.82;;;22.80;96.70;;;;;;5094745;28;20054;-71
2023/09/15 04:11:16;;;;;;;8.82;5.47;;;22.80;96.70;;;;;;5069820;28;20040;-72
2023/09/15 04:13:45;;;;;;;7.28;4.95;;;22.80;96.70;;;;;;5104667;28;20051;-72
2023/09/15 04:16:13;;;;;;;8.40;5.40;;;22.80;96.70;;;;;;5069966;28;20382;-71
2023/09/15 04:18:43;;;;;;;8.80;5.78;;;22.70;96.70;;;;;;5102388;28;20544;-72
2023/09/15 04:21:11;;;;;;;8.07;5.13;;;22.70;96.70;;;;;;5073244;28;20044;-71
2023/09/15 04:23:40;;;;;;;6.15;4.68;;;22.70;96.70;;;;;;5089716;28;20573;-72
2023/09/15 04:26:08;;;;;;;6.20;5.00;;;22.70;96.70;;;;;;5087181;28;20113;-71
2023/09/15 04:28:36;;;;;;;6.63;4.95;;;22.70;96.70;;;;;;5085529;28;20082;-72
2023/09/15 04:31:05;;;;;;;8.20;4.90;;;22.70;96.70;;;;;;5108118;28;20055;-72
2023/09/15 04:33:35;;;;;;;5.65;5.05;;;22.70;96.70;;;;;;5107507;28;20046;-72
2023/09/15 04:36:06;;;;;;;5.93;4.65;;;22.70;96.70;;;;;;5089594;28;20059;-72
2023/09/15 04:38:35;;;;;;;6.95;4.80;;;22.70;96.70;;;;;;5073421;28;20519;-71
2023/09/15 04:41:04;;;;;;;9.65;5.28;;;22.70;96.70;;;;;;5073393;28;20500;-71
2023/09/15 04:43:33;;;;;;;7.78;4.63;;;22.70;96.70;;;;;;5072953;28;20043;-71
2023/09/15 04:46:01;;;;;;;7.28;5.15;;;22.70;96.70;;;;;;5107776;28;20441;-71
2023/09/15 04:48:30;;;;;;;6.13;4.40;;;22.70;96.70;;;;;;5080976;28;20047;-71
2023/09/15 04:50:58;;;;;;;7.63;4.88;;;22.70;96.70;;;;;;5089705;28;21389;-71
2023/09/15 04:53:28;;;;;;;9.55;5.35;;;22.60;96.70;;;;;;5089505;28;20044;-71
2023/09/15 04:55:56;;;;;;;5.72;4.45;;;22.70;96.70;;;;;;5097554;28;20047;-71
2023/09/15 04:58:24;;;;;;;7.68;5.32;;;22.70;96.70;;;;;;5088381;28;20394;-72
2023/09/15 05:00:59;;;;;;;6.03;4.90;;;22.70;96.70;;;;;;5089044;28;20043;-71
2023/09/15 05:03:28;;;;;;;6.63;5.03;;;22.70;96.70;;;;;;5088883;28;20059;-71
2023/09/15 05:05:57;;;;;;;5.72;5.10;;;22.70;96.70;;;;;;5088681;28;20489;-72
2023/09/15 05:08:27;;;;;;;5.43;4.82;;;22.60;96.70;;;;;;5107810;28;20043;-71
2023/09/15 05:10:55;;;;;;;6.28;4.50;;;22.50;96.70;;;;;;5089439;28;20051;-72
2023/09/15 05:13:25;;;;;;;9.30;5.10;;;22.50;96.70;;;;;;5072441;28;20489;-71
2023/09/15 05:15:54;;;;;;;7.97;5.38;;;22.50;96.70;;;;;;5072357;28;20138;-72
2023/09/15 05:18:23;;;;;;;8.02;5.63;;;22.50;96.70;;;;;;5098396;28;20138;-72
2023/09/15 05:20:51;;;;;;;8.40;5.13;;;22.40;96.70;;;;;;5107036;28;20047;-71
2023/09/15 05:23:20;;;;;;;7.28;5.25;;;22.50;96.70;;;;;;5070353;28;20526;-72
2023/09/15 05:25:51;;;;;;;7.50;5.43;;;22.40;96.70;;;;;;5071858;28;20146;-72
2023/09/15 05:28:21;;;;;;;8.75;5.88;;;22.40;96.70;;;;;;5071160;28;20429;-72
2023/09/15 05:30:56;;;;;;;5.47;4.97;;;22.40;96.70;;;;;;5088231;28;20554;-71
2023/09/15 05:33:25;;;;;;;14.82;7.28;;;22.40;96.70;;;;;;5071462;28;20047;-71
2023/09/15 05:35:54;;;;;;;8.15;5.13;;;22.40;96.70;;;;;;5085622;28;20056;-72
2023/09/15 05:38:23;;;;;;;11.80;5.95;;;22.40;96.70;;;;;;5068014;28;20222;-72
2023/09/15 05:40:52;;;;;;;8.98;5.95;;;22.40;96.70;;;;;;5084991;28;20421;-72
2023/09/15 05:43:21;;;;;;;9.50;5.82;;;22.40;96.70;;;;;;5084642;28;20490;-72
2023/09/15 05:45:49;;;;;;;6.85;5.72;;;22.40;96.70;;;;;;5086604;28;20043;-72
2023/09/15 05:48:23;;;;;;;13.32;6.13;;;22.50;96.70;;;;;;5086046;28;20047;-71
2023/09/15 05:50:51;;;;;;;8.85;6.00;;;22.50;96.70;;;;;;5085785;28;20048;-70
2023/09/15 05:53:19;;;;;;;8.27;5.80;;;22.50;96.70;;;;;;5086391;28;20036;-72
2023/09/15 05:55:47;;;;;;;7.90;5.28;;;22.60;96.70;;;;;;5080643;28;20059;-72
2023/09/15 05:58:17;;;;;;;9.57;6.05;;;22.60;96.70;;;;;;5084520;28;20494;-71
2023/09/15 06:00:45;;;;;;;7.43;6.20;;;22.60;96.70;;;;;;5086071;28;20056;-72
2023/09/15 06:03:13;;;;;;;6.03;5.47;;;22.60;96.70;;;;;;5085756;28;20040;-71
2023/09/15 06:05:41;;;;;;;9.80;6.43;;;22.70;96.70;;;;;;5084448;28;20048;-71
2023/09/15 06:08:09;;;;;;;13.95;6.05;;;22.70;96.70;;;;;;5086155;28;20483;-72
2023/09/15 06:10:39;;;;;;;7.80;5.63;;;22.70;96.70;;;;;;5084242;28;20067;-71
2023/09/15 06:13:08;;;;;;;8.00;5.95;;;22.80;96.70;;;;;;5085966;28;20047;-72
2023/09/15 06:15:38;;;;;;;7.07;5.30;;;22.90;96.70;;;;;;5083939;28;20050;-71
2023/09/15 06:18:06;;;;;;;10.15;5.57;;;22.90;96.70;;;;;;5076928;28;20044;-71
2023/09/15 06:20:34;;;;;;;8.68;6.05;;;23.00;96.70;;;;;;5078611;28;20097;-71
2023/09/15 06:23:03;;;;;;;11.07;5.82;;;23.00;96.70;;;;;;5084317;28;20051;-71
2023/09/15 06:25:32;;;;;;;6.65;5.45;;;23.00;96.70;;;;;;5085528;28;20040;-72
2023/09/15 06:28:00;;;;;;;6.47;5.00;;;23.10;96.70;;;;;;5084162;28;20123;-71
2023/09/15 06:30:30;;;;;;;8.05;5.75;;;23.20;96.70;;;;;;5085141;28;20036;-72
2023/09/15 06:33:00;;;;;;;7.20;4.65;;;23.20;96.70;;;;;;5083614;28;20048;-72
2023/09/15 06:35:28;;;;;;;6.13;5.10;;;23.20;96.70;;;;;;5085838;28;20089;-71
2023/09/15 06:37:56;;;;;;;6.13;4.32;;;23.30;96.70;;;;;;5105914;28;20497;-71
2023/09/15 06:40:24;;;;;;;5.82;5.22;;;23.30;96.70;;;;;;5070382;28;20078;-73
2023/09/15 06:42:52;;;;;;;6.13;4.95;;;23.30;96.70;;;;;;5105022;28;20051;-71
2023/09/15 06:45:20;;;;;;;9.38;5.50;;;23.30;96.70;;;;;;5079054;28;20048;-72
2023/09/15 06:47:48;;;;;;;5.10;4.40;;;23.40;96.70;;;;;;5087498;28;20036;-71
2023/09/15 06:50:18;;;;;;;5.45;4.65;;;23.40;96.70;;;;;;5111186;27;20047;-71
2023/09/15 06:52:46;;;;;;;7.88;4.40;;;23.50;96.70;;;;;;5078560;28;20075;-72
2023/09/15 06:55:14;;;;;;;5.78;4.20;;;23.60;96.70;;;;;;5104798;28;20126;-72
2023/09/15 06:57:42;;;;;;;4.53;3.88;;;23.60;96.70;;;;;;5105013;28;20039;-72
2023/09/15 07:00:10;;;;;;;5.82;4.00;;;23.60;96.70;;;;;;5105267;28;20443;-71
2023/09/15 07:02:38;;;;;;;4.97;3.42;;;23.60;96.70;;;;;;5087008;28;20068;-72
2023/09/15 07:05:07;;;;;;;6.30;3.53;;;23.70;96.70;;;;;;5105498;28;20053;-71
2023/09/15 07:07:36;;;;;;;6.07;4.18;;;23.70;96.70;;;;;;5105196;28;20199;-71
2023/09/15 07:10:05;;;;;;;6.30;3.58;;;23.70;96.70;;;;;;5087917;28;20067;-72
2023/09/15 07:12:33;;;;;;;5.63;3.47;;;23.80;96.70;;;;;;5105554;28;20138;-71
2023/09/15 07:15:04;;;;;;;3.90;3.28;;;23.80;96.70;;;;;;5070395;28;20058;-72
2023/09/15 07:17:33;;;;;;;7.03;3.90;;;23.90;96.70;;;;;;5097439;28;20505;-72
2023/09/15 07:20:01;;;;;;;4.70;3.10;;;24.00;96.70;;;;;;5072961;28;20036;-71
2023/09/15 07:22:29;;;;;;;2.92;2.05;;;24.00;96.70;;;;;;5086936;28;20150;-72
2023/09/15 07:24:58;;;;;;;7.28;2.33;;;24.00;96.70;;;;;;5068609;28;20400;-73
2023/09/15 07:27:26;;;;;;;3.15;2.20;;;24.10;96.70;;;;;;5094938;28;20047;-71
2023/09/15 07:29:54;;;;;;;3.08;1.92;;;24.20;96.70;;;;;;5092412;28;20044;-72
2023/09/15 07:32:22;;;;;;;4.60;1.90;;;24.20;96.70;;;;;;5086495;28;20067;-71
2023/09/15 07:34:50;;;;;;;2.20;1.60;;;24.20;96.70;;;;;;5105199;28;20097;-71
2023/09/15 07:37:18;;;;;;;3.78;1.90;;;24.30;96.70;;;;;;5082902;28;20052;-71
2023/09/15 07:39:46;;;;;;;2.63;1.25;;;24.30;96.70;;;;;;5083177;28;20036;-72
2023/09/15 07:42:16;;;;;;;4.30;1.75;;;24.30;96.70;;;;;;5066288;28;20098;-72
2023/09/15 07:44:45;;;;;;;4.85;1.60;;;24.40;96.70;;;;;;5082995;28;20496;-72
2023/09/15 07:47:14;;;;;;;1.88;1.40;;;24.40;96.70;;;;;;5083243;28;20044;-71
2023/09/15 07:49:42;;;;;;;1.90;1.13;;;24.50;96.70;;;;;;5083793;28;20067;-72
2023/09/15 07:52:10;;;;;;;4.72;1.45;;;24.60;96.70;;;;;;5084119;28;20067;-71
2023/09/15 07:54:41;;;;;;;2.25;1.45;;;24.60;96.70;;;;;;5070540;28;20071;-72
2023/09/15 07:57:08;;;;;;;2.95;1.73;;;24.70;96.70;;;;;;5086655;28;20535;-71
2023/09/15 07:59:38;;;;;;;3.28;1.38;;;24.70;96.70;;;;;;5086986;28;20138;-71
2023/09/15 08:02:06;;;;;;;1.73;1.48;;;24.80;96.70;;;;;;5086849;28;20113;-71
2023/09/15 08:04:34;;;;;;;2.28;1.40;;;24.90;96.70;;;;;;5087782;28;20036;-71
2023/09/15 08:07:04;;;;;;;3.83;1.50;;;24.90;96.70;;;;;;5087237;28;20059;-71
2023/09/15 08:09:32;;;;;;;3.95;1.63;;;24.90;96.70;;;;;;5088022;28;20040;-71
2023/09/15 08:12:01;;;;;;;2.45;1.50;;;24.90;96.70;;;;;;5084980;28;20059;-72
2023/09/15 08:14:29;;;;;;;2.65;1.50;;;24.90;96.70;;;;;;5086695;28;20040;-72
2023/09/15 08:16:59;;;;;;;5.43;1.90;;;24.90;96.70;;;;;;5086070;28;20048;-72
2023/09/15 08:19:28;;;;;;;6.65;1.58;;;25.00;96.70;;;;;;5080473;28;20688;-72
2023/09/15 08:21:59;;;;;;;2.85;1.73;;;25.10;96.70;;;;;;5088286;28;20055;-72
2023/09/15 08:24:27;;;;;;;3.08;1.63;;;25.20;96.70;;;;;;5086618;28;20050;-71
2023/09/15 08:26:55;;;;;;;2.58;1.60;;;25.20;96.70;;;;;;5088140;28;20051;-71
2023/09/15 08:29:23;;;;;;;2.03;1.70;;;25.30;96.70;;;;;;5086005;28;20539;-72
2023/09/15 08:31:51;;;;;;;2.25;1.50;;;25.30;96.70;;;;;;5079232;28;20058;-71
2023/09/15 08:34:20;;;;;;;3.15;1.60;;;25.40;96.70;;;;;;5087349;28;20077;-72
2023/09/15 08:36:48;;;;;;;1.95;1.60;;;25.40;96.70;;;;;;5086044;28;20048;-72
2023/09/15 08:39:17;;;;;;;2.15;1.60;;;25.40;96.70;;;;;;5087579;28;20135;-72
2023/09/15 08:41:51;;;;;;;4.32;1.83;;;25.50;96.70;;;;;;5087914;28;20052;-71
2023/09/15 08:44:20;;;;;;;3.38;2.00;;;25.60;96.70;;;;;;5070802;28;20052;-71
2023/09/15 08:46:49;;;;;;;13.15;2.55;;;25.70;96.70;;;;;;5085946;28;20044;-72
2023/09/15 08:49:18;;;;;;;4.47;1.90;;;25.80;96.70;;;;;;5088959;28;20236;-71
2023/09/15 08:51:48;;;;;;;3.22;1.90;;;25.80;96.70;;;;;;5085948;28;20040;-71
2023/09/15 08:54:17;;;;;;;4.10;1.77;;;25.80;96.70;;;;;;5087080;28;20046;-71
2023/09/15 08:56:45;;;;;;;4.43;2.28;;;25.80;96.70;;;;;;5086743;28;20044;-72
2023/09/15 08:59:15;;;;;;;4.55;2.05;;;25.90;96.70;;;;;;5069008;28;20607;-71
2023/09/15 09:01:43;;;;;;;4.43;2.25;;;25.90;96.70;;;;;;5087351;28;20502;-72
2023/09/15 09:04:11;;;;;;;2.60;1.77;;;25.90;96.70;;;;;;5085289;28;20056;-72
2023/09/15 09:06:41;;;;;;;2.88;2.33;;;26.00;96.70;;;;;;5087337;28;20391;-72
2023/09/15 09:09:11;;;;;;;5.22;2.78;;;25.90;96.70;;;;;;5080163;28;20691;-71
2023/09/15 09:11:39;;;;;;;4.10;2.50;;;26.00;96.70;;;;;;5085909;28;20051;-72
2023/09/15 09:14:11;;;;;;;2.85;2.42;;;26.10;96.70;;;;;;5087116;28;20139;-72
2023/09/15 09:16:46;;;;;;;5.72;2.65;;;26.20;96.70;;;;;;5070101;28;20051;-72
2023/09/15 09:19:15;;;;;;;4.88;2.67;;;26.30;96.70;;;;;;5084925;28;20079;-72
2023/09/15 09:21:44;;;;;;;4.35;2.33;;;26.40;96.70;;;;;;5086522;28;20059;-72
2023/09/15 09:24:14;;;;;;;4.32;2.22;;;26.40;96.70;;;;;;5085191;28;20068;-73
2023/09/15 09:26:54;;;;;;;3.35;2.30;;;26.40;96.70;;;;;;5086712;28;20048;-71
2023/09/15 09:29:25;;;;;;;5.22;3.00;;;26.30;96.70;;;;;;5085246;28;20068;-72
2023/09/15 09:31:53;;;;;;;5.22;3.05;;;26.40;96.70;;;;;;5084121;28;20042;-71
2023/09/15 09:34:22;;;;;;;4.93;2.70;;;26.50;96.70;;;;;;5086418;28;20397;-72
2023/09/15 09:37:10;;;;;;;5.95;2.50;;;26.40;96.70;;;;;;5071239;28;20426;-73
2023/09/15 09:39:40;;;;;;;3.05;2.53;;;26.70;96.70;;;;;;5086056;28;20040;-73
2023/09/15 09:42:10;;;;;;;3.28;2.42;;;26.90;96.70;;;;;;5076461;28;20048;-71
2023/09/15 09:44:38;;;;;;;5.50;2.55;;;27.00;96.70;;;;;;5086299;28;20097;-72
2023/09/15 09:47:09;;;;;;;3.20;2.35;;;27.00;96.70;;;;;;5068100;28;20517;-72
2023/09/15 09:49:39;;;;;;;5.43;2.58;;;27.00;96.70;;;;;;5086293;28;20478;-71
2023/09/15 09:52:07;;;;;;;5.47;2.85;;;27.00;96.70;;;;;;5084757;28;20075;-72
2023/09/15 09:54:35;;;;;;;5.45;2.55;;;27.00;96.70;;;;;;5086056;28;20039;-72
2023/09/15 09:57:06;;;;;;;4.10;2.90;;;27.10;96.70;;;;;;5085877;28;20071;-72
2023/09/15 09:59:37;;;;;;;4.68;2.72;;;27.30;96.70;;;;;;5086289;28;20645;-73
2023/09/15 10:02:05;;;;;;;5.50;3.15;;;27.40;96.70;;;;;;5084267;28;20146;-72
2023/09/15 10:04:34;;;;;;;6.80;3.47;;;27.40;96.70;;;;;;5084822;28;20040;-72
2023/09/15 10:07:03;;;;;;;7.45;3.22;;;27.50;96.70;;;;;;5084848;28;20394;-72
2023/09/15 10:09:31;;;;;;;4.30;3.25;;;27.70;96.70;;;;;;5084476;28;20055;-72
2023/09/15 10:12:01;;;;;;;6.30;3.05;;;27.70;96.70;;;;;;5086029;28;20717;-72
2023/09/15 10:14:31;;;;;;;3.70;2.97;;;27.80;96.70;;;;;;5085257;28;20497;-72
2023/09/15 10:17:00;;;;;;;5.05;3.38;;;27.80;96.70;;;;;;5085568;28;20052;-72
2023/09/15 10:19:29;;;;;;;5.03;3.30;;;27.80;96.70;;;;;;5067594;28;20060;-72
2023/09/15 10:21:58;;;;;;;5.18;3.22;;;27.70;96.70;;;;;;5084415;28;20413;-72
2023/09/15 10:24:27;;;;;;;4.78;3.60;;;27.80;96.70;;;;;;5084494;28;20055;-73
2023/09/15 10:26:55;;;;;;;3.78;2.67;;;27.90;96.70;;;;;;5084024;28;20511;-75
2023/09/15 10:29:31;;;;;;;4.07;3.75;;;27.90;96.70;;;;;;5084087;28;20039;-74
2023/09/15 10:32:04;;;;;;;5.30;3.33;;;28.00;96.70;;;;;;5081546;28;20051;-74
2023/09/15 10:34:33;;;;;;;5.53;3.47;;;28.00;96.70;;;;;;5082357;28;20046;-74
2023/09/15 10:37:02;;;;;;;4.63;3.15;;;28.20;96.70;;;;;;5077888;28;20392;-76
2023/09/15 10:39:38;;;;;;;5.47;3.20;;;28.40;96.70;;;;;;5083868;28;20036;-76
2023/09/15 10:42:07;;;;;;;7.23;3.43;;;28.60;96.70;;;;;;5083752;28;20051;-76
2023/09/15 10:44:37;;;;;;;4.53;3.47;;;28.60;96.70;;;;;;5083634;28;20976;-74
2023/09/15 10:47:15;;;;;;;3.45;3.15;;;28.60;96.70;;;;;;5062752;28;20167;-72
2023/09/15 10:49:51;;;;;;;4.15;3.10;;;28.70;96.70;;;;;;5080439;28;20667;-73
2023/09/15 10:52:32;;;;;;;4.10;3.00;;;28.70;96.70;;;;;;5079173;28;20063;-75
2023/09/15 10:55:03;;;;;;;4.82;3.78;;;28.80;96.70;;;;;;5060229;28;20143;-73
2023/09/15 10:57:35;;;;;;;3.40;3.00;;;29.00;96.70;;;;;;5081113;28;20047;-74
2023/09/15 11:00:06;;;;;;;4.68;3.20;;;28.90;96.70;;;;;;5080000;28;20498;-75
2023/09/15 11:02:36;;;;;;;4.65;3.25;;;28.90;96.70;;;;;;5085301;28;20073;-75
2023/09/15 11:05:05;;;;;;;4.78;3.35;;;28.90;96.70;;;;;;5083796;28;20127;-76
2023/09/15 11:07:37;;;;;;;6.10;3.15;;;28.90;96.70;;;;;;5082156;28;20036;-75
2023/09/15 11:10:08;;;;;;;4.65;3.22;;;29.00;96.70;;;;;;5084068;28;20035;-76
2023/09/15 11:12:39;;;;;;;5.10;3.35;;;29.10;96.70;;;;;;5083013;28;20465;-75
2023/09/15 11:15:11;;;;;;;4.13;2.90;;;29.20;96.70;;;;;;5084097;28;20148;-76
2023/09/15 11:17:39;;;;;;;3.63;3.03;;;29.30;96.70;;;;;;5065337;28;20055;-76
2023/09/15 11:20:10;;;;;;;3.17;2.80;;;29.40;96.70;;;;;;5064380;28;20457;-77
2023/09/15 11:22:40;;;;;;;4.88;3.30;;;29.50;96.70;;;;;;5080037;28;20049;-76
2023/09/15 11:25:10;;;;;;;4.20;3.13;;;29.60;96.70;;;;;;5082851;28;20119;-77
2023/09/15 11:27:47;;;;;;;4.13;2.75;;;29.80;96.70;;;;;;5070788;28;20694;-77
2023/09/15 11:30:18;;;;;;;3.80;3.22;;;29.80;96.70;;;;;;5087284;28;20047;-75
2023/09/15 11:32:47;;;;;;;5.00;2.50;;;29.70;96.70;;;;;;5085809;28;20097;-76
2023/09/15 11:35:18;;;;;;;3.33;2.88;;;29.80;96.70;;;;;;5084563;28;20132;-76
2023/09/15 11:37:47;;;;;;;9.23;3.88;;;30.00;96.70;;;;;;5083311;28;20054;-74
2023/09/15 11:40:23;;;;;;;4.53;2.88;;;29.90;96.70;;;;;;5089449;28;20043;-76
2023/09/15 11:42:54;;;;;;;3.10;2.60;;;30.00;96.70;;;;;;5089275;28;20096;-75
2023/09/15 11:45:26;;;;;;;3.30;3.00;;;30.10;96.70;;;;;;5072930;28;20043;-76
2023/09/15 11:47:56;;;;;;;5.30;2.70;;;30.40;96.70;;;;;;5106357;28;20043;-75
2023/09/15 11:50:25;;;;;;;3.03;2.70;;;30.60;96.70;;;;;;5107704;28;20129;-75
2023/09/15 11:52:56;;;;;;;4.25;2.88;;;30.50;96.70;;;;;;5073044;28;20044;-75
2023/09/15 11:55:25;;;;;;;5.40;2.85;;;30.40;96.70;;;;;;5067358;28;20040;-75
2023/09/15 11:57:55;;;;;;;3.42;3.10;;;30.70;96.70;;;;;;5080976;28;20043;-76
2023/09/15 12:00:31;;;;;;;4.05;2.60;;;30.90;96.70;;;;;;5090011;28;20101;-75
2023/09/15 12:03:00;;;;;;;4.00;2.65;;;30.80;96.70;;;;;;5104494;28;20043;-75
2023/09/15 12:05:28;;;;;;;4.47;2.63;;;31.10;96.70;;;;;;5107597;28;20614;-75
2023/09/15 12:07:59;;;;;;;5.22;2.78;;;31.20;96.70;;;;;;5107662;28;20101;-75
2023/09/15 12:10:27;;;;;;;4.07;2.58;;;31.40;96.70;;;;;;5088840;28;20113;-75
2023/09/15 12:12:59;;;;;;;5.47;2.75;;;31.30;96.70;;;;;;5075338;28;20068;-76
2023/09/15 12:15:28;;;;;;;3.90;2.60;;;31.30;96.70;;;;;;5107419;28;20054;-76
2023/09/15 12:17:57;;;;;;;4.25;2.40;;;31.30;96.70;;;;;;5107623;28;20052;-75
2023/09/15 12:20:25;;;;;;;5.00;2.50;;;31.20;96.70;;;;;;5107637;28;20035;-75
2023/09/15 12:22:54;;;;;;;3.28;2.33;;;31.30;96.70;;;;;;5072782;28;20104;-75
2023/09/15 12:25:22;;;;;;;5.18;2.67;;;31.50;96.70;;;;;;5106425;28;20039;-75
2023/09/15 12:27:51;;;;;;;4.72;3.20;;;31.50;96.70;;;;;;5107458;28;20047;-78
2023/09/15 12:30:20;;;;;;;4.05;2.38;;;31.70;96.70;;;;;;5070994;28;20048;-74
2023/09/15 12:32:50;;;;;;;5.38;2.28;;;31.70;96.70;;;;;;5089121;28;20587;-76
2023/09/15 12:35:20;;;;;;;4.05;2.67;;;31.70;96.70;;;;;;5071657;28;20047;-76
2023/09/15 12:37:53;;;;;;;3.55;2.65;;;31.90;96.70;;;;;;5106582;28;20069;-77
2023/09/15 12:40:22;;;;;;;4.13;2.70;;;31.80;96.70;;;;;;5107606;28;20043;-77
2023/09/15 12:42:50;;;;;;;4.75;2.60;;;31.90;96.70;;;;;;5107242;28;20141;-76
2023/09/15 12:45:19;;;;;;;3.55;2.55;;;31.90;96.70;;;;;;5085466;28;20044;-77
2023/09/15 12:47:50;;;;;;;3.58;2.60;;;31.70;96.70;;;;;;5088655;28;20462;-76
2023/09/15 12:50:23;;;;;;;4.40;2.83;;;31.90;96.70;;;;;;5123343;27;20040;-76
2023/09/15 12:52:54;;;;;;;5.63;2.88;;;31.80;96.70;;;;;;5105482;28;20031;-76
2023/09/15 12:55:23;;;;;;;4.18;2.70;;;31.90;96.70;;;;;;5102803;28;20531;-76
2023/09/15 12:57:51;;;;;;;4.15;2.50;;;32.20;96.70;;;;;;5071502;28;20055;-76